Time;durP1;ratioP1;P1;durP2;ratioP2;P2;SDS_P1;SDS_P2;PMS_P1;PMS_P2;Temp;Humidity;BMP_temperature;BMP_pressure;BME280_temperature;BME280_humidity;BME280_pressure;Samples;Min_cycle;Max_cycle;Signal;HPM_P1;HPM_P2
2023/08/13 00:01:14;;;;;;;0.50;0.40;;;18.10;99.90;;;;;;5092311;28;20536;-79
2023/08/13 00:03:40;;;;;;;0.50;0.30;;;18.00;99.90;;;;;;5091934;28;20452;-78
2023/08/13 00:06:08;;;;;;;0.50;0.30;;;18.00;99.90;;;;;;5091505;28;20435;-78
2023/08/13 00:08:35;;;;;;;0.50;0.40;;;17.90;99.90;;;;;;5091596;28;20468;-78
2023/08/13 00:11:09;;;;;;;0.50;0.30;;;17.90;99.90;;;;;;5091232;28;20485;-78
2023/08/13 00:13:35;;;;;;;0.50;0.30;;;17.80;99.90;;;;;;5092138;28;20487;-77
2023/08/13 00:16:02;;;;;;;0.50;0.30;;;17.80;99.90;;;;;;5091348;28;20442;-78
2023/08/13 00:18:29;;;;;;;0.50;0.30;;;17.80;99.90;;;;;;5083295;28;20449;-78
2023/08/13 00:20:56;;;;;;;0.50;0.30;;;17.80;99.90;;;;;;5091051;28;20453;-77
2023/08/13 00:23:24;;;;;;;0.50;0.30;;;17.80;99.90;;;;;;5091002;28;20812;-78
2023/08/13 00:25:51;;;;;;;0.50;0.30;;;17.70;99.90;;;;;;5090895;28;20542;-78
2023/08/13 00:28:18;;;;;;;0.50;0.30;;;17.70;99.90;;;;;;5091385;28;20446;-78
2023/08/13 00:30:44;;;;;;;0.50;0.40;;;17.70;99.90;;;;;;5090648;28;20484;-78
2023/08/13 00:33:11;;;;;;;0.50;0.40;;;17.70;99.90;;;;;;5091074;28;20437;-79
2023/08/13 00:35:38;;;;;;;0.50;0.40;;;17.70;99.90;;;;;;5091399;28;20445;-77
2023/08/13 00:38:05;;;;;;;0.50;0.30;;;17.70;99.90;;;;;;5091356;28;20437;-78
2023/08/13 00:40:34;;;;;;;0.50;0.40;;;17.70;99.90;;;;;;5082860;28;20468;-78
2023/08/13 00:43:02;;;;;;;0.50;0.33;;;17.60;99.90;;;;;;5078467;28;20446;-75
2023/08/13 00:45:31;;;;;;;0.50;0.40;;;17.50;99.90;;;;;;5077782;28;20480;-78
2023/08/13 00:47:58;;;;;;;0.50;0.30;;;17.50;99.90;;;;;;5076746;28;20495;-78
2023/08/13 00:50:25;;;;;;;0.50;0.30;;;17.40;99.90;;;;;;5076924;28;20997;-78
2023/08/13 00:52:52;;;;;;;0.50;0.40;;;17.40;99.90;;;;;;5077416;28;21067;-78
2023/08/13 00:55:18;;;;;;;0.50;0.30;;;17.30;99.90;;;;;;5077458;28;20453;-77
2023/08/13 00:57:47;;;;;;;0.50;0.30;;;17.30;99.90;;;;;;5076999;28;20441;-78
2023/08/13 01:00:16;;;;;;;0.50;0.40;;;17.30;99.90;;;;;;5077117;28;20442;-78
2023/08/13 01:02:43;;;;;;;0.50;0.30;;;17.30;99.90;;;;;;5068458;28;20536;-79
2023/08/13 01:05:10;;;;;;;0.50;0.40;;;17.20;99.90;;;;;;5068734;28;20521;-78
2023/08/13 01:07:47;;;;;;;0.50;0.40;;;17.20;99.90;;;;;;5076329;28;20445;-78
2023/08/13 01:10:19;;;;;;;0.50;0.40;;;17.20;99.90;;;;;;5069127;28;20492;-78
2023/08/13 01:12:55;;;;;;;0.50;0.30;;;17.10;99.90;;;;;;5076281;28;20438;-78
2023/08/13 01:15:31;;;;;;;0.50;0.33;;;17.20;99.90;;;;;;5076546;28;20437;-78
2023/08/13 01:18:00;;;;;;;0.50;0.40;;;17.20;99.90;;;;;;5076635;28;20444;-79
2023/08/13 01:20:30;;;;;;;0.50;0.40;;;17.10;99.90;;;;;;5077075;28;20461;-78
2023/08/13 01:22:59;;;;;;;0.50;0.30;;;17.10;99.90;;;;;;5074604;28;20446;-78
2023/08/13 01:25:27;;;;;;;0.50;0.40;;;17.10;99.90;;;;;;5070822;28;20805;-79
2023/08/13 01:28:02;;;;;;;0.50;0.30;;;17.10;99.90;;;;;;5076129;28;20443;-79
2023/08/13 01:30:35;;;;;;;0.50;0.40;;;17.10;99.90;;;;;;5076911;28;20505;-78
2023/08/13 01:33:04;;;;;;;0.50;0.40;;;17.00;99.90;;;;;;5076112;28;21148;-77
2023/08/13 01:35:33;;;;;;;0.50;0.40;;;17.00;99.90;;;;;;5077067;28;20436;-79
2023/08/13 01:38:03;;;;;;;0.53;0.53;;;17.00;99.90;;;;;;5076398;28;20434;-79
2023/08/13 01:40:30;;;;;;;0.50;0.40;;;17.00;99.90;;;;;;5076535;28;20940;-78
2023/08/13 01:42:57;;;;;;;0.50;0.37;;;16.90;99.90;;;;;;5076389;28;20450;-78
2023/08/13 01:45:24;;;;;;;0.50;0.40;;;16.90;99.90;;;;;;5076767;28;20448;-78
2023/08/13 01:47:50;;;;;;;0.50;0.40;;;16.80;99.90;;;;;;5075570;28;20437;-77
2023/08/13 01:50:17;;;;;;;0.50;0.40;;;16.80;99.90;;;;;;5075872;28;20464;-79
2023/08/13 01:52:44;;;;;;;0.50;0.40;;;16.90;99.90;;;;;;5075734;28;20442;-78
2023/08/13 01:55:12;;;;;;;0.50;0.40;;;16.80;99.90;;;;;;5075379;28;20434;-79
2023/08/13 01:57:39;;;;;;;0.50;0.40;;;16.80;99.90;;;;;;5076484;28;20465;-79
2023/08/13 02:00:07;;;;;;;0.50;0.40;;;16.80;99.90;;;;;;5074742;28;20941;-79
2023/08/13 02:02:34;;;;;;;0.50;0.40;;;16.70;99.90;;;;;;5075749;28;20443;-78
2023/08/13 02:05:02;;;;;;;0.50;0.30;;;16.70;99.90;;;;;;5075715;28;20440;-79
2023/08/13 02:07:28;;;;;;;0.50;0.40;;;16.70;99.90;;;;;;5075827;28;20440;-79
2023/08/13 02:09:55;;;;;;;0.50;0.30;;;16.70;99.90;;;;;;5075568;28;20446;-77
2023/08/13 02:12:23;;;;;;;0.50;0.40;;;16.60;99.90;;;;;;5076393;28;20473;-79
2023/08/13 02:14:50;;;;;;;0.50;0.40;;;16.60;99.90;;;;;;5075678;28;20447;-77
2023/08/13 02:17:17;;;;;;;0.50;0.33;;;16.60;99.90;;;;;;5075146;28;20450;-78
2023/08/13 02:19:44;;;;;;;0.50;0.40;;;16.60;99.90;;;;;;5075730;28;20450;-78
2023/08/13 02:22:10;;;;;;;0.50;0.40;;;16.50;99.90;;;;;;5075667;28;21244;-78
2023/08/13 02:24:37;;;;;;;0.50;0.40;;;16.50;99.90;;;;;;5075744;28;20444;-78
2023/08/13 02:27:05;;;;;;;0.50;0.40;;;16.40;99.90;;;;;;5075614;28;20465;-78
2023/08/13 02:29:33;;;;;;;0.50;0.30;;;16.40;99.90;;;;;;5076536;28;20462;-79
2023/08/13 02:32:00;;;;;;;0.50;0.40;;;16.40;99.90;;;;;;5075833;28;20796;-75
2023/08/13 02:34:27;;;;;;;0.50;0.40;;;16.30;99.90;;;;;;5077234;28;20442;-79
2023/08/13 02:36:54;;;;;;;0.50;0.40;;;16.20;99.90;;;;;;5076807;28;20438;-78
2023/08/13 02:39:20;;;;;;;0.50;0.40;;;16.20;99.90;;;;;;5075933;28;20925;-78
2023/08/13 02:41:47;;;;;;;0.50;0.40;;;16.20;99.90;;;;;;5075664;28;20454;-79
2023/08/13 02:44:14;;;;;;;0.50;0.40;;;16.20;99.90;;;;;;5076079;28;20444;-78
2023/08/13 02:46:42;;;;;;;0.50;0.40;;;16.20;99.90;;;;;;5075084;28;20537;-78
2023/08/13 02:49:09;;;;;;;0.50;0.40;;;16.20;99.90;;;;;;5075092;28;21127;-79
2023/08/13 02:51:36;;;;;;;0.50;0.40;;;16.10;99.90;;;;;;5074788;28;20489;-79
2023/08/13 02:54:03;;;;;;;0.50;0.40;;;16.10;99.90;;;;;;5074880;28;20446;-76
2023/08/13 02:56:29;;;;;;;0.50;0.40;;;16.10;99.90;;;;;;5074605;28;20439;-79
2023/08/13 02:58:56;;;;;;;0.70;0.70;;;16.10;99.90;;;;;;5075013;28;20444;-78
2023/08/13 03:01:23;;;;;;;0.50;0.40;;;16.10;99.90;;;;;;5074859;28;20462;-78
2023/08/13 03:03:52;;;;;;;0.50;0.33;;;16.10;99.90;;;;;;5074514;28;20438;-79
2023/08/13 03:06:19;;;;;;;0.50;0.30;;;16.00;99.90;;;;;;5074482;28;20470;-78
2023/08/13 03:08:46;;;;;;;0.50;0.40;;;16.00;99.90;;;;;;5075287;28;20442;-78
2023/08/13 03:11:13;;;;;;;0.50;0.40;;;16.00;99.90;;;;;;5074634;28;20483;-79
2023/08/13 03:13:40;;;;;;;0.50;0.40;;;15.90;99.90;;;;;;5074898;28;20443;-79
2023/08/13 03:16:07;;;;;;;0.50;0.30;;;15.90;99.90;;;;;;5073623;28;20450;-75
2023/08/13 03:18:33;;;;;;;0.50;0.40;;;15.90;99.90;;;;;;5074814;28;20449;-78
2023/08/13 03:21:01;;;;;;;0.50;0.40;;;15.90;99.90;;;;;;5074695;28;20462;-77
2023/08/13 03:23:29;;;;;;;0.50;0.40;;;15.90;99.90;;;;;;5074622;28;20454;-79
2023/08/13 03:25:56;;;;;;;4.30;1.70;;;15.80;99.90;;;;;;5074451;28;20455;-79
2023/08/13 03:28:23;;;;;;;0.50;0.40;;;15.80;99.90;;;;;;5067183;28;20522;-79
2023/08/13 03:30:50;;;;;;;0.50;0.40;;;15.70;99.90;;;;;;5074086;28;20917;-80
2023/08/13 03:33:16;;;;;;;0.50;0.40;;;15.70;99.90;;;;;;5074340;28;20495;-79
2023/08/13 03:35:45;;;;;;;0.80;0.80;;;15.70;99.90;;;;;;5074376;28;20441;-78
2023/08/13 03:38:13;;;;;;;0.50;0.37;;;15.70;99.90;;;;;;5074397;28;20446;-78
2023/08/13 03:40:39;;;;;;;0.50;0.30;;;15.60;99.90;;;;;;5075334;28;20460;-79
2023/08/13 03:43:06;;;;;;;0.50;0.30;;;15.60;99.90;;;;;;5073972;28;20437;-78
2023/08/13 03:45:33;;;;;;;0.50;0.40;;;15.60;99.90;;;;;;5074834;28;20445;-78
2023/08/13 03:48:00;;;;;;;0.50;0.40;;;15.60;99.90;;;;;;5074157;28;20442;-77
2023/08/13 03:50:26;;;;;;;0.50;0.37;;;15.60;99.90;;;;;;5074559;28;20461;-79
2023/08/13 03:52:53;;;;;;;0.50;0.40;;;15.60;99.90;;;;;;5074605;28;20473;-78
2023/08/13 03:55:21;;;;;;;0.50;0.40;;;15.60;99.90;;;;;;5074446;28;20443;-78
2023/08/13 03:57:51;;;;;;;0.50;0.40;;;15.60;99.90;;;;;;5074047;28;20448;-78
2023/08/13 04:00:19;;;;;;;0.50;0.37;;;15.50;99.90;;;;;;5074485;28;20473;-78
2023/08/13 04:02:49;;;;;;;0.50;0.40;;;15.50;99.90;;;;;;5074236;28;20434;-79
2023/08/13 04:05:15;;;;;;;0.50;0.40;;;15.50;99.90;;;;;;5074221;28;20438;-78
2023/08/13 04:07:42;;;;;;;0.50;0.40;;;15.50;99.90;;;;;;5074382;28;20533;-79
2023/08/13 04:10:10;;;;;;;0.50;0.30;;;15.50;99.90;;;;;;5074092;28;20443;-78
2023/08/13 04:12:38;;;;;;;0.50;0.40;;;15.60;99.90;;;;;;5074610;28;20482;-79
2023/08/13 04:15:05;;;;;;;0.50;0.40;;;15.50;99.90;;;;;;5073417;28;20444;-77
2023/08/13 04:17:32;;;;;;;0.50;0.40;;;15.60;99.90;;;;;;5075468;28;20786;-78
2023/08/13 04:19:59;;;;;;;0.50;0.40;;;15.60;99.90;;;;;;5077627;28;20440;-77
2023/08/13 04:22:25;;;;;;;0.50;0.40;;;15.50;99.90;;;;;;5076861;28;20430;-79
2023/08/13 04:24:52;;;;;;;0.50;0.40;;;15.50;99.90;;;;;;5077448;28;20437;-79
2023/08/13 04:27:19;;;;;;;0.50;0.40;;;15.60;99.90;;;;;;5077275;28;20786;-79
2023/08/13 04:29:47;;;;;;;0.50;0.40;;;15.60;99.90;;;;;;5077295;28;20437;-79
2023/08/13 04:32:14;;;;;;;0.50;0.40;;;15.60;99.90;;;;;;5076869;28;20489;-79
2023/08/13 04:34:41;;;;;;;0.50;0.40;;;15.60;99.90;;;;;;5077939;28;20438;-79
2023/08/13 04:37:08;;;;;;;0.50;0.40;;;15.60;99.90;;;;;;5077051;28;20450;-76
2023/08/13 04:39:35;;;;;;;0.50;0.30;;;15.60;99.90;;;;;;5077402;28;20479;-79
2023/08/13 04:42:02;;;;;;;0.50;0.40;;;15.70;99.90;;;;;;5077437;28;20472;-77
2023/08/13 04:44:29;;;;;;;0.50;0.40;;;15.70;99.90;;;;;;5068987;28;20528;-79
2023/08/13 04:46:57;;;;;;;0.50;0.30;;;15.70;99.90;;;;;;5076912;28;20450;-79
2023/08/13 04:49:24;;;;;;;0.50;0.40;;;15.70;99.90;;;;;;5077510;28;20440;-79
2023/08/13 04:51:51;;;;;;;0.50;0.40;;;15.80;99.90;;;;;;5076989;28;20480;-79
2023/08/13 04:54:17;;;;;;;0.50;0.40;;;15.80;99.90;;;;;;5076898;28;20435;-79
2023/08/13 04:56:44;;;;;;;0.50;0.40;;;15.80;99.90;;;;;;5076782;28;20462;-78
2023/08/13 04:59:11;;;;;;;0.50;0.30;;;15.80;99.90;;;;;;5076583;28;20533;-77
2023/08/13 05:01:38;;;;;;;0.50;0.40;;;15.90;99.90;;;;;;5077005;28;20466;-79
2023/08/13 05:04:06;;;;;;;0.50;0.37;;;15.90;99.90;;;;;;5076404;28;20449;-77
2023/08/13 05:06:33;;;;;;;0.50;0.40;;;15.90;99.90;;;;;;5076370;28;20443;-78
2023/08/13 05:09:00;;;;;;;0.50;0.40;;;16.00;99.90;;;;;;5076287;28;20434;-78
2023/08/13 05:11:27;;;;;;;0.50;0.40;;;16.10;99.90;;;;;;5076101;28;20490;-79
2023/08/13 05:13:53;;;;;;;0.50;0.40;;;16.10;99.90;;;;;;5076481;28;20975;-78
2023/08/13 05:16:20;;;;;;;0.50;0.33;;;16.20;99.90;;;;;;5076270;28;20973;-79
2023/08/13 05:18:47;;;;;;;0.50;0.40;;;16.30;99.90;;;;;;5076459;28;20451;-79
2023/08/13 05:21:15;;;;;;;0.50;0.40;;;16.40;99.90;;;;;;5076403;28;20466;-79
2023/08/13 05:23:42;;;;;;;0.50;0.40;;;16.50;99.90;;;;;;5076161;28;20446;-79
2023/08/13 05:26:13;;;;;;;0.50;0.40;;;16.60;99.90;;;;;;5075571;28;20442;-76
2023/08/13 05:28:39;;;;;;;0.50;0.40;;;16.70;99.90;;;;;;5076375;28;20440;-78
2023/08/13 05:31:06;;;;;;;0.50;0.40;;;16.80;99.90;;;;;;5076101;28;20469;-78
2023/08/13 05:33:34;;;;;;;0.50;0.37;;;16.90;99.90;;;;;;5067978;28;21014;-79
2023/08/13 05:36:02;;;;;;;0.50;0.40;;;17.00;99.90;;;;;;5076380;28;20446;-79
2023/08/13 05:38:31;;;;;;;0.50;0.30;;;17.10;99.90;;;;;;5076052;28;20442;-79
2023/08/13 05:40:58;;;;;;;0.50;0.30;;;17.10;99.90;;;;;;5076167;28;20485;-78
2023/08/13 05:43:24;;;;;;;0.50;0.40;;;17.20;99.90;;;;;;5075725;28;20439;-78
2023/08/13 05:45:51;;;;;;;0.50;0.40;;;17.20;99.90;;;;;;5075262;28;20433;-79
2023/08/13 05:48:18;;;;;;;0.50;0.40;;;17.30;99.90;;;;;;5066789;28;20810;-78
2023/08/13 05:50:45;;;;;;;0.50;0.40;;;17.30;99.90;;;;;;5075274;28;20485;-77
2023/08/13 05:53:12;;;;;;;0.50;0.40;;;17.30;99.90;;;;;;5074097;28;20477;-77
2023/08/13 05:55:40;;;;;;;0.50;0.30;;;17.30;99.90;;;;;;5067037;28;20438;-79
2023/08/13 05:58:07;;;;;;;0.50;0.33;;;17.40;99.90;;;;;;5074061;28;20445;-77
2023/08/13 06:00:33;;;;;;;0.50;0.37;;;17.40;99.90;;;;;;5065183;28;20461;-79
2023/08/13 06:03:00;;;;;;;0.50;0.30;;;17.40;99.90;;;;;;5073591;28;20503;-78
2023/08/13 06:05:27;;;;;;;0.50;0.30;;;17.40;99.90;;;;;;5074342;28;20445;-79
2023/08/13 06:07:54;;;;;;;0.50;0.40;;;17.30;99.90;;;;;;5073973;28;20446;-78
2023/08/13 06:10:21;;;;;;;0.50;0.30;;;17.30;99.90;;;;;;5073564;28;20829;-78
2023/08/13 06:12:49;;;;;;;0.50;0.33;;;17.30;99.90;;;;;;5068221;28;20485;-78
2023/08/13 06:15:16;;;;;;;0.50;0.37;;;17.30;99.90;;;;;;5070964;28;20950;-78
2023/08/13 06:17:42;;;;;;;0.50;0.30;;;17.30;99.90;;;;;;5074087;28;20937;-78
2023/08/13 06:20:11;;;;;;;0.50;0.40;;;17.30;99.90;;;;;;5074573;28;20445;-78
2023/08/13 06:22:38;;;;;;;0.50;0.40;;;17.40;99.90;;;;;;5074590;28;21004;-78
2023/08/13 06:25:05;;;;;;;0.50;0.30;;;17.50;99.90;;;;;;5075100;28;20457;-77
2023/08/13 06:27:32;;;;;;;0.50;0.40;;;17.60;99.90;;;;;;5074612;28;20848;-78
2023/08/13 06:30:01;;;;;;;0.50;0.30;;;17.90;99.90;;;;;;5075117;28;20553;-78
2023/08/13 06:32:28;;;;;;;0.50;0.30;;;18.30;99.90;;;;;;5075530;28;20475;-79
2023/08/13 06:34:55;;;;;;;0.50;0.30;;;18.60;99.90;;;;;;5075438;28;20546;-78
2023/08/13 06:37:22;;;;;;;0.50;0.40;;;18.90;99.90;;;;;;5072334;28;20446;-75
2023/08/13 06:39:49;;;;;;;0.50;0.30;;;19.10;99.90;;;;;;5071874;28;20439;-79
2023/08/13 06:42:16;;;;;;;0.50;0.40;;;19.20;99.90;;;;;;5072135;28;20465;-76
2023/08/13 06:44:44;;;;;;;0.50;0.30;;;19.30;99.90;;;;;;5073639;28;20473;-78
2023/08/13 06:47:12;;;;;;;0.50;0.40;;;19.40;99.90;;;;;;5073940;28;20453;-78
2023/08/13 06:49:39;;;;;;;0.50;0.40;;;19.40;99.90;;;;;;5073740;28;20438;-79
2023/08/13 06:52:06;;;;;;;0.50;0.40;;;19.30;99.90;;;;;;5074009;28;20493;-79
2023/08/13 06:54:33;;;;;;;0.50;0.30;;;19.30;99.90;;;;;;5074902;28;20443;-79
2023/08/13 06:57:00;;;;;;;0.50;0.30;;;19.20;99.90;;;;;;5075183;28;20779;-79
2023/08/13 06:59:27;;;;;;;0.50;0.30;;;19.30;99.90;;;;;;5075501;28;20475;-79
2023/08/13 07:01:54;;;;;;;0.50;0.40;;;19.20;99.90;;;;;;5075558;28;20970;-79
2023/08/13 07:04:22;;;;;;;0.50;0.30;;;19.20;99.90;;;;;;5075166;28;20442;-78
2023/08/13 07:06:49;;;;;;;0.50;0.40;;;19.30;99.90;;;;;;5074406;28;20525;-79
2023/08/13 07:09:15;;;;;;;0.50;0.30;;;19.60;99.90;;;;;;5074452;28;20973;-79
2023/08/13 07:11:42;;;;;;;0.50;0.30;;;20.20;99.90;;;;;;5065918;28;20457;-78
2023/08/13 07:14:09;;;;;;;0.50;0.30;;;20.80;99.90;;;;;;5074796;28;20483;-79
2023/08/13 07:16:35;;;;;;;0.50;0.30;;;22.00;99.90;;;;;;5074155;28;20455;-79
2023/08/13 07:19:02;;;;;;;0.50;0.40;;;23.30;99.90;;;;;;5069321;28;20803;-80
2023/08/13 07:21:30;;;;;;;0.50;0.40;;;24.50;99.90;;;;;;5074402;28;20810;-79
2023/08/13 07:23:57;;;;;;;0.50;0.30;;;24.90;99.90;;;;;;5076833;28;20438;-79
2023/08/13 07:26:24;;;;;;;0.50;0.30;;;25.20;99.90;;;;;;5075822;28;20439;-80
2023/08/13 07:28:51;;;;;;;0.50;0.30;;;26.10;99.90;;;;;;5077371;28;20830;-79
2023/08/13 07:31:19;;;;;;;0.50;0.33;;;26.90;99.90;;;;;;5076885;28;20464;-79
2023/08/13 07:33:46;;;;;;;0.50;0.30;;;26.90;99.90;;;;;;5075499;28;20501;-79
2023/08/13 07:36:13;;;;;;;0.50;0.30;;;26.50;99.90;;;;;;5074907;28;20437;-79
2023/08/13 07:38:42;;;;;;;0.50;0.30;;;25.70;99.90;;;;;;5074778;28;20448;-80
2023/08/13 07:41:09;;;;;;;0.50;0.40;;;25.90;99.90;;;;;;5075228;28;20472;-79
2023/08/13 07:43:35;;;;;;;0.50;0.30;;;26.30;99.90;;;;;;5074460;28;20853;-80
2023/08/13 07:46:02;;;;;;;0.50;0.30;;;26.60;99.90;;;;;;5074474;28;20952;-78
2023/08/13 07:48:29;;;;;;;0.50;0.30;;;27.00;99.90;;;;;;5075249;28;20968;-79
2023/08/13 07:50:56;;;;;;;0.50;0.30;;;26.60;99.90;;;;;;5074870;28;20985;-79
2023/08/13 07:53:23;;;;;;;0.50;0.30;;;26.30;99.90;;;;;;5078075;28;20483;-79
2023/08/13 07:55:51;;;;;;;0.50;0.30;;;26.10;99.90;;;;;;5077837;28;20452;-78
2023/08/13 07:58:18;;;;;;;0.50;0.40;;;26.10;99.90;;;;;;5079680;28;20446;-79
2023/08/13 08:00:45;;;;;;;0.50;0.30;;;25.70;99.90;;;;;;5071150;28;20455;-79
2023/08/13 08:03:13;;;;;;;0.50;0.40;;;26.00;99.90;;;;;;5079219;28;20434;-80
2023/08/13 08:05:40;;;;;;;0.50;0.40;;;26.20;99.90;;;;;;5079248;28;20438;-79
2023/08/13 08:08:07;;;;;;;0.50;0.30;;;26.30;99.90;;;;;;5078598;28;20547;-79
2023/08/13 08:10:34;;;;;;;0.50;0.30;;;26.30;99.90;;;;;;5078118;28;21016;-79
2023/08/13 08:13:03;;;;;;;1.30;0.50;;;25.90;99.90;;;;;;5074097;28;20481;-78
2023/08/13 08:15:29;;;;;;;0.50;0.40;;;25.90;99.90;;;;;;5072370;28;20501;-78
2023/08/13 08:17:56;;;;;;;0.50;0.30;;;25.80;99.90;;;;;;5068727;28;20441;-78
2023/08/13 08:20:23;;;;;;;0.50;0.40;;;25.40;99.90;;;;;;5075958;28;20479;-78
2023/08/13 08:22:50;;;;;;;0.50;0.30;;;25.20;99.90;;;;;;5077376;28;20465;-79
2023/08/13 08:25:16;;;;;;;0.50;0.30;;;25.30;99.90;;;;;;5080749;28;20465;-79
2023/08/13 08:27:43;;;;;;;0.50;0.30;;;25.20;99.90;;;;;;5082005;28;20446;-79
2023/08/13 08:30:12;;;;;;;0.50;0.30;;;24.90;99.90;;;;;;5080934;28;20967;-79
2023/08/13 08:32:39;;;;;;;0.50;0.30;;;25.00;99.90;;;;;;5070221;28;20473;-79
2023/08/13 08:35:07;;;;;;;0.50;0.33;;;24.90;99.90;;;;;;5069966;28;20438;-78
2023/08/13 08:37:34;;;;;;;0.50;0.30;;;24.90;99.90;;;;;;5070197;28;20445;-80
2023/08/13 08:40:00;;;;;;;0.50;0.40;;;25.10;99.90;;;;;;5079675;28;20439;-78
2023/08/13 08:42:27;;;;;;;0.63;0.63;;;24.90;99.90;;;;;;5078311;28;20816;-79
2023/08/13 08:44:54;;;;;;;0.50;0.30;;;24.60;99.90;;;;;;5078892;28;20447;-79
2023/08/13 08:47:23;;;;;;;0.50;0.30;;;24.50;99.90;;;;;;5078962;28;20455;-80
2023/08/13 08:49:51;;;;;;;0.50;0.30;;;24.50;99.90;;;;;;5082940;28;20438;-80
2023/08/13 08:52:19;;;;;;;0.60;0.60;;;24.60;99.90;;;;;;5083684;28;20461;-79
2023/08/13 08:54:48;;;;;;;0.50;0.30;;;24.60;99.90;;;;;;5082425;28;20444;-80
2023/08/13 08:57:15;;;;;;;0.50;0.30;;;24.70;99.90;;;;;;5082848;28;20466;-80
2023/08/13 08:59:42;;;;;;;0.50;0.30;;;24.80;99.90;;;;;;5074250;28;20443;-80
2023/08/13 09:02:11;;;;;;;0.50;0.30;;;25.10;99.90;;;;;;5081739;28;20840;-80
2023/08/13 09:04:40;;;;;;;0.50;0.30;;;25.60;99.90;;;;;;5081652;28;20538;-80
2023/08/13 09:07:06;;;;;;;0.50;0.30;;;25.90;99.90;;;;;;5071917;28;20470;-79
2023/08/13 09:09:33;;;;;;;0.50;0.30;;;26.60;99.90;;;;;;5072087;28;20444;-79
2023/08/13 09:12:00;;;;;;;0.50;0.30;;;26.70;99.90;;;;;;5079502;28;20464;-79
2023/08/13 09:14:27;;;;;;;0.50;0.30;;;26.80;99.90;;;;;;5080252;28;20557;-80
2023/08/13 09:16:55;;;;;;;0.50;0.30;;;27.10;99.90;;;;;;5073097;28;20449;-79
2023/08/13 09:19:24;;;;;;;0.50;0.30;;;27.90;99.90;;;;;;5078815;28;20463;-80
2023/08/13 09:21:54;;;;;;;0.50;0.30;;;27.80;99.90;;;;;;5078390;28;20531;-80
2023/08/13 09:24:32;;;;;;;0.50;0.30;;;28.10;99.90;;;;;;5074044;28;20948;-79
2023/08/13 09:26:59;;;;;;;0.50;0.40;;;28.40;99.90;;;;;;5075661;28;20435;-80
2023/08/13 09:29:28;;;;;;;0.50;0.30;;;28.60;97.40;;;;;;5075695;28;20992;-80
2023/08/13 09:31:55;;;;;;;0.50;0.33;;;28.50;96.10;;;;;;5072971;28;20455;-80
2023/08/13 09:34:22;;;;;;;0.50;0.30;;;28.70;98.70;;;;;;5081968;28;20832;-80
2023/08/13 09:36:52;;;;;;;1.70;1.60;;;28.90;97.00;;;;;;5074866;28;20452;-80
2023/08/13 09:39:20;;;;;;;0.50;0.30;;;28.90;95.60;;;;;;5082574;28;20445;-79
2023/08/13 09:41:49;;;;;;;0.50;0.30;;;29.10;96.70;;;;;;5073998;28;20491;-80
2023/08/13 09:44:19;;;;;;;0.50;0.30;;;28.70;94.00;;;;;;5082799;28;20440;-80
2023/08/13 09:46:49;;;;;;;0.50;0.40;;;27.80;93.40;;;;;;5082171;28;20436;-80
2023/08/13 09:49:17;;;;;;;0.50;0.30;;;27.60;94.80;;;;;;5082644;28;20449;-80
2023/08/13 09:51:47;;;;;;;0.50;0.30;;;27.40;95.50;;;;;;5073371;28;20530;-80
2023/08/13 09:54:21;;;;;;;0.50;0.30;;;27.60;99.90;;;;;;5076211;28;21026;-80
2023/08/13 09:56:56;;;;;;;0.50;0.30;;;27.70;98.60;;;;;;5080748;28;20509;-80
2023/08/13 09:59:23;;;;;;;0.50;0.30;;;27.60;96.80;;;;;;5068396;28;20455;-79
2023/08/13 10:01:50;;;;;;;0.50;0.30;;;27.70;98.90;;;;;;5081670;28;20458;-80
2023/08/13 10:04:18;;;;;;;0.50;0.30;;;27.70;97.20;;;;;;5079459;28;20449;-80
2023/08/13 10:06:46;;;;;;;0.50;0.40;;;27.20;96.80;;;;;;5071314;28;20444;-80
2023/08/13 10:09:13;;;;;;;0.50;0.30;;;26.80;98.50;;;;;;5082858;28;20815;-80
2023/08/13 10:11:40;;;;;;;0.50;0.30;;;26.80;97.00;;;;;;5080785;28;20458;-79
2023/08/13 10:14:08;;;;;;;0.50;0.30;;;26.70;99.80;;;;;;5075554;28;20474;-78
2023/08/13 10:16:35;;;;;;;0.50;0.30;;;26.70;99.70;;;;;;5080645;28;20442;-79
2023/08/13 10:19:02;;;;;;;0.50;0.37;;;27.40;99.20;;;;;;5070888;28;20933;-80
2023/08/13 10:21:36;;;;;;;0.50;0.30;;;28.30;99.90;;;;;;5072240;28;20978;-80
2023/08/13 10:24:04;;;;;;;0.50;0.30;;;29.00;96.00;;;;;;5082534;28;20611;-80
2023/08/13 10:26:32;;;;;;;0.50;0.40;;;29.50;93.40;;;;;;5071460;28;20441;-79
2023/08/13 10:28:58;;;;;;;2.70;2.23;;;30.00;93.60;;;;;;5077522;28;20452;-80
2023/08/13 10:31:30;;;;;;;0.50;0.30;;;30.20;92.60;;;;;;5073120;28;20467;-80
2023/08/13 10:34:10;;;;;;;0.50;0.30;;;30.60;91.60;;;;;;5070411;28;20476;-80
2023/08/13 10:36:44;;;;;;;0.50;0.30;;;30.30;91.00;;;;;;5072528;28;20463;-79
2023/08/13 10:39:33;;;;;;;0.50;0.40;;;30.60;90.00;;;;;;5074627;28;21015;-80
2023/08/13 10:42:00;;;;;;;0.50;0.40;;;31.40;92.00;;;;;;5070657;28;20452;-79
2023/08/13 10:44:30;;;;;;;0.50;0.30;;;31.30;80.90;;;;;;5076774;28;20425;-80
2023/08/13 10:46:58;;;;;;;0.50;0.30;;;30.50;83.10;;;;;;5077777;28;20440;-81
2023/08/13 10:49:26;;;;;;;0.50;0.30;;;29.80;85.70;;;;;;5079011;28;20427;-80
2023/08/13 10:51:53;;;;;;;1.20;1.07;;;29.50;86.20;;;;;;5067469;28;20450;-80
2023/08/13 10:54:24;;;;;;;0.50;0.30;;;29.80;88.00;;;;;;5072565;28;20825;-79
2023/08/13 10:56:56;;;;;;;0.50;0.30;;;29.70;90.10;;;;;;5077918;28;20986;-80
2023/08/13 10:59:29;;;;;;;0.50;0.40;;;29.80;90.20;;;;;;5079154;28;20436;-79
2023/08/13 11:02:20;;;;;;;0.50;0.50;;;29.30;86.60;;;;;;5077543;28;20461;-80
2023/08/13 11:04:47;;;;;;;0.50;0.30;;;29.00;85.70;;;;;;5069672;28;20437;-79
2023/08/13 11:07:14;;;;;;;0.50;0.30;;;28.60;90.50;;;;;;5070700;28;20446;-79
2023/08/13 11:09:43;;;;;;;0.60;0.60;;;28.30;90.60;;;;;;5073196;28;20446;-80
2023/08/13 11:12:10;;;;;;;0.50;0.40;;;28.10;90.60;;;;;;5060546;28;20470;-79
2023/08/13 11:14:38;;;;;;;0.50;0.37;;;27.90;90.80;;;;;;5059876;28;20476;-79
2023/08/13 11:17:05;;;;;;;0.50;0.40;;;27.60;91.10;;;;;;5069374;28;20538;-79
2023/08/13 11:19:34;;;;;;;0.50;0.30;;;27.60;92.70;;;;;;5078671;28;20896;-79
2023/08/13 11:22:02;;;;;;;0.50;0.30;;;27.20;92.90;;;;;;5078101;28;20455;-79
2023/08/13 11:24:31;;;;;;;0.50;0.30;;;27.00;94.70;;;;;;5077957;28;20433;-80
2023/08/13 11:26:58;;;;;;;0.60;0.60;;;26.90;94.90;;;;;;5077724;28;20948;-79
2023/08/13 11:29:25;;;;;;;0.50;0.30;;;26.90;97.10;;;;;;5078063;28;20505;-79
2023/08/13 11:31:52;;;;;;;0.50;0.30;;;27.10;97.40;;;;;;5077901;28;20797;-80
2023/08/13 11:34:19;;;;;;;1.37;1.13;;;26.80;96.80;;;;;;5077497;28;20470;-80
2023/08/13 11:36:50;;;;;;;0.50;0.30;;;26.90;96.80;;;;;;5068270;28;20820;-79
2023/08/13 11:39:18;;;;;;;0.50;0.30;;;27.50;95.50;;;;;;5063007;28;20537;-77
2023/08/13 11:41:46;;;;;;;0.50;0.30;;;28.20;96.40;;;;;;5075920;28;20493;-80
2023/08/13 11:44:13;;;;;;;1.17;1.07;;;28.40;97.50;;;;;;5071862;28;20438;-78
2023/08/13 11:46:53;;;;;;;0.50;0.40;;;28.00;92.80;;;;;;5077301;28;20881;-79
2023/08/13 11:49:20;;;;;;;1.33;1.27;;;28.00;93.70;;;;;;5071374;28;20507;-79
2023/08/13 11:51:49;;;;;;;0.50;0.40;;;27.80;92.00;;;;;;5067778;28;20474;-78
2023/08/13 11:54:18;;;;;;;0.50;0.30;;;28.20;94.90;;;;;;5069706;28;20492;-79
2023/08/13 11:56:44;;;;;;;0.50;0.40;;;29.10;91.50;;;;;;5077217;28;20467;-79
2023/08/13 11:59:12;;;;;;;0.50;0.40;;;29.80;90.60;;;;;;5078051;28;20442;-79
2023/08/13 12:01:39;;;;;;;0.87;0.87;;;30.40;86.60;;;;;;5077920;28;20456;-79
2023/08/13 12:04:07;;;;;;;0.50;0.30;;;30.80;83.40;;;;;;5069949;28;20437;-79
2023/08/13 12:06:35;;;;;;;0.50;0.30;;;30.60;82.30;;;;;;5077224;28;20500;-79
2023/08/13 12:09:04;;;;;;;0.50;0.30;;;30.50;85.30;;;;;;5068699;28;20437;-79
2023/08/13 12:11:32;;;;;;;0.43;0.30;;;30.30;84.00;;;;;;5077187;28;20464;-80
2023/08/13 12:14:06;;;;;;;0.50;0.30;;;30.00;83.00;;;;;;5074051;28;20463;-78
2023/08/13 12:16:33;;;;;;;0.50;0.37;;;29.50;86.70;;;;;;5062810;28;20429;-78
2023/08/13 12:19:03;;;;;;;0.50;0.30;;;29.40;83.90;;;;;;5065401;28;20442;-79
2023/08/13 12:21:30;;;;;;;0.50;0.30;;;29.10;84.60;;;;;;5066934;28;20477;-80
2023/08/13 12:23:57;;;;;;;0.50;0.30;;;28.80;84.80;;;;;;5073191;28;20439;-80
2023/08/13 12:26:25;;;;;;;0.50;0.40;;;28.30;86.00;;;;;;5071391;28;20458;-78
2023/08/13 12:28:52;;;;;;;0.70;0.57;;;27.80;88.80;;;;;;5074229;28;20813;-79
2023/08/13 12:31:19;;;;;;;0.50;0.30;;;27.10;91.50;;;;;;5074371;28;20469;-79
2023/08/13 12:33:46;;;;;;;0.50;0.33;;;27.10;92.20;;;;;;5074858;28;20479;-81
2023/08/13 12:36:13;;;;;;;0.50;0.30;;;27.60;94.30;;;;;;5076195;28;20445;-77
2023/08/13 12:38:40;;;;;;;0.50;0.40;;;28.10;92.10;;;;;;5062292;28;20443;-79
2023/08/13 12:41:07;;;;;;;2.00;1.50;;;28.20;92.20;;;;;;5061665;28;20839;-78
2023/08/13 12:43:36;;;;;;;0.50;0.30;;;28.40;90.90;;;;;;5077079;28;20439;-78
2023/08/13 12:46:05;;;;;;;0.50;0.30;;;28.30;90.20;;;;;;5073759;28;20431;-80
2023/08/13 12:48:32;;;;;;;0.50;0.37;;;28.00;91.30;;;;;;5071251;28;20445;-79
2023/08/13 12:50:59;;;;;;;0.50;0.40;;;27.60;93.10;;;;;;5076086;28;20466;-80